KMUO/MUO METAR and TAF weather

Enter ICAO airport designator
Station Type Date Time Source
KMUO METAR 2022/06/30 23:58 UTC NOAA

KMUO 302358Z AUTO 08005KT 10SM CLR 32/M05 A2989 RMK AO2 SLP099 60000 T03231046 10327 20259 57026 $


Station Type Date Time Source
KMUO Decoded METAR 2022/06/30 23:58 UTC NOAA

Mountain Home Air Force Base, ID, United States (KMUO) 43-03N 115-52W
Jun 30, 2022 - 07:58 PM EDT / 2022.06.30 2358 UTC
Wind: from the E (080 degrees) at 6 MPH (5 KT):0
Visibility: 10 mile(s):0
Sky conditions: clear
Temperature: 90.1 F (32.3 C)
Dew Point: 23.7 F (-4.6 C)
Relative Humidity: 8%
Pressure (altimeter): 29.89 in. Hg (1012 hPa)
Pressure tendency: 0.08 inches (2.6 hPa) lower than three hours ago
ob: KMUO 302358Z AUTO 08005KT 10SM CLR 32/M05 A2989 RMK AO2 SLP099 60000 T03231046 10327 20259 57026
cycle: 0

Station Type Date Time Source
KMUO TAF 2022/06/30 02:05 UTC NOAA

TAF KMUO 300200Z 3002/0108 33012G20KT 9999 FEW060 FEW120 QNH2995INS
TEMPO 3002/3003 33015G26KT 510009
BECMG 3003/3004 VRB06KT 9999 FEW100 FEW190 QNH2996INS
BECMG 0102/0103 34012KT 9999 FEW060 SCT120 SCT190 QNH2990INS TX30/3023Z TN14/3013Z LAST NO
AMDS AFT 3003 NEXT 0510

Example: see airport list